Time;durP1;ratioP1;P1;durP2;ratioP2;P2;SDS_P1;SDS_P2;PMS_P1;PMS_P2;Temp;Humidity;BMP_temperature;BMP_pressure;BME280_temperature;BME280_humidity;BME280_pressure;Samples;Min_cycle;Max_cycle;Signal;HPM_P1;HPM_P2
2022/09/20 00:00:48;;;;;;;6.20;4.70;;;17.60;66.70;;;;;;5069148;28;20100;-79
2022/09/20 00:03:15;;;;;;;5.75;4.30;;;17.50;66.90;;;;;;5071743;28;20028;-86
2022/09/20 00:05:43;;;;;;;5.30;4.40;;;17.90;65.50;;;;;;5071497;28;20025;-85
2022/09/20 00:08:14;;;;;;;5.60;4.53;;;18.40;64.40;;;;;;5053471;28;20025;-83
2022/09/20 00:10:41;;;;;;;6.25;4.03;;;18.50;64.20;;;;;;5036400;28;20021;-83
2022/09/20 00:13:10;;;;;;;7.75;4.00;;;18.30;64.80;;;;;;5036036;28;20041;-84
2022/09/20 00:15:43;;;;;;;5.55;4.15;;;18.40;64.60;;;;;;5035983;28;20020;-80
2022/09/20 00:18:10;;;;;;;5.05;4.22;;;18.60;63.60;;;;;;5054171;28;20082;-79
2022/09/20 00:20:43;;;;;;;6.25;3.75;;;18.60;63.70;;;;;;5048726;28;20020;-82
2022/09/20 00:23:08;;;;;;;4.80;3.50;;;18.80;63.20;;;;;;5067552;28;20095;-81
2022/09/20 00:25:34;;;;;;;4.95;3.65;;;18.80;63.30;;;;;;5050589;28;20418;-88
2022/09/20 00:28:00;;;;;;;4.70;3.38;;;18.90;63.00;;;;;;5039849;28;20029;-83
2022/09/20 00:30:25;;;;;;;4.68;3.30;;;19.00;62.80;;;;;;5035856;28;20059;-88
2022/09/20 00:32:51;;;;;;;7.75;3.60;;;18.50;63.20;;;;;;5051392;28;20598;-81
2022/09/20 00:35:17;;;;;;;4.75;2.80;;;18.50;63.60;;;;;;5054487;28;20699;-84
2022/09/20 00:37:43;;;;;;;4.40;3.15;;;18.40;63.50;;;;;;5055211;28;20115;-85
2022/09/20 00:40:12;;;;;;;4.18;2.88;;;18.10;64.60;;;;;;5040819;28;20538;-85
2022/09/20 00:42:38;;;;;;;4.20;3.05;;;18.20;64.10;;;;;;5049863;28;20032;-83
2022/09/20 00:45:06;;;;;;;3.97;2.88;;;18.20;64.60;;;;;;5053202;28;20028;-87
2022/09/20 00:47:43;;;;;;;5.95;2.50;;;18.40;64.10;;;;;;5047049;28;20078;-84
2022/09/20 00:50:12;;;;;;;4.30;2.72;;;18.70;63.30;;;;;;5073129;28;20035;-84
2022/09/20 00:52:42;;;;;;;4.25;2.75;;;18.70;62.50;;;;;;5039530;28;20091;-84
2022/09/20 00:55:09;;;;;;;3.85;2.55;;;18.70;63.00;;;;;;5035943;28;20026;-85
2022/09/20 00:57:37;;;;;;;3.45;2.25;;;18.90;62.70;;;;;;5045284;28;20427;-86
2022/09/20 01:00:08;;;;;;;5.55;3.13;;;19.10;62.10;;;;;;5053080;28;20017;-84
2022/09/20 01:02:37;;;;;;;3.30;2.30;;;19.30;61.20;;;;;;5036939;28;20383;-87
2022/09/20 01:05:03;;;;;;;4.13;2.50;;;19.30;61.00;;;;;;5035180;28;20033;-84
2022/09/20 01:07:29;;;;;;;3.83;2.58;;;19.30;61.30;;;;;;5035668;28;20068;-83
2022/09/20 01:09:55;;;;;;;5.07;2.60;;;19.10;61.40;;;;;;5035337;28;20484;-89
2022/09/20 01:12:29;;;;;;;4.70;2.70;;;18.90;61.60;;;;;;5049823;28;20116;-84
2022/09/20 01:14:55;;;;;;;4.03;2.58;;;18.90;61.20;;;;;;5055867;28;20049;-82
2022/09/20 01:17:30;;;;;;;3.75;2.30;;;18.70;61.70;;;;;;5057304;28;20095;-87
2022/09/20 01:20:14;;;;;;;4.07;2.60;;;18.80;62.20;;;;;;5056734;28;20025;-83
2022/09/20 01:23:15;;;;;;;3.95;2.60;;;18.90;61.30;;;;;;5051102;28;20029;-87
2022/09/20 01:26:11;;;;;;;3.92;2.50;;;19.00;61.30;;;;;;5046561;28;20036;-81
2022/09/20 01:28:38;;;;;;;5.82;2.55;;;19.10;61.20;;;;;;5041002;28;20117;-86
2022/09/20 01:31:03;;;;;;;5.80;2.50;;;19.10;61.00;;;;;;5036781;28;20029;-86
2022/09/20 01:33:33;;;;;;;4.13;2.40;;;19.10;60.70;;;;;;5035336;28;20040;-86
2022/09/20 01:36:03;;;;;;;3.85;2.35;;;19.00;60.70;;;;;;5036946;28;20017;-83
2022/09/20 01:38:44;;;;;;;3.58;2.40;;;18.80;61.20;;;;;;5035474;28;20091;-88
2022/09/20 01:41:51;;;;;;;4.03;2.63;;;18.60;62.00;;;;;;5035463;28;20025;-88
2022/09/20 01:44:39;;;;;;;3.60;2.40;;;18.70;61.50;;;;;;5019083;28;20049;-83
2022/09/20 01:47:16;;;;;;;4.95;2.60;;;18.70;61.80;;;;;;5049816;28;20032;-87
2022/09/20 01:50:24;;;;;;;5.18;2.70;;;18.80;61.50;;;;;;5046278;28;20380;-85
2022/09/20 01:53:12;;;;;;;5.25;2.80;;;18.60;61.60;;;;;;5036108;28;20040;-86
2022/09/20 01:55:49;;;;;;;4.32;2.65;;;18.50;62.20;;;;;;5036228;28;20022;-82
2022/09/20 01:58:31;;;;;;;3.55;2.40;;;18.50;62.20;;;;;;5035704;28;20025;-90
2022/09/20 02:01:34;;;;;;;4.45;2.53;;;18.20;62.50;;;;;;5041573;28;20021;-85
2022/09/20 02:04:12;;;;;;;3.90;2.20;;;18.00;63.40;;;;;;5034996;28;20488;-92
2022/09/20 02:06:49;;;;;;;4.28;2.65;;;18.10;63.20;;;;;;5036001;28;20433;-81
2022/09/20 02:09:45;;;;;;;4.22;2.30;;;17.90;63.60;;;;;;5036119;28;20017;-77
2022/09/20 02:12:25;;;;;;;4.75;2.50;;;17.80;63.80;;;;;;5051836;28;20030;-87
2022/09/20 02:15:03;;;;;;;;;;;17.90;63.50;;;;;;5038330;28;20045;-78
2022/09/20 02:17:38;;;;;;;3.78;2.55;;;17.90;63.40;;;;;;5035986;28;19909;-84
2022/09/20 02:20:31;;;;;;;4.10;2.72;;;17.90;63.90;;;;;;5035322;28;20025;-88
2022/09/20 02:23:05;;;;;;;3.78;2.83;;;18.10;63.00;;;;;;5035267;28;20040;-86
2022/09/20 02:25:59;;;;;;;3.92;2.70;;;18.20;62.50;;;;;;5034797;28;20492;-80
2022/09/20 02:28:44;;;;;;;4.63;2.83;;;18.30;62.30;;;;;;5049518;28;20076;-89
2022/09/20 02:31:23;;;;;;;7.00;2.80;;;18.60;61.90;;;;;;5046489;28;20025;-89
2022/09/20 02:34:26;;;;;;;4.05;3.10;;;18.50;61.80;;;;;;5038032;28;20068;-85
2022/09/20 02:37:17;;;;;;;4.63;2.70;;;18.50;61.70;;;;;;5046732;28;20492;-87
2022/09/20 02:39:52;;;;;;;4.30;2.88;;;18.50;61.80;;;;;;5048693;28;20021;-88
2022/09/20 02:42:38;;;;;;;4.57;2.90;;;18.40;62.10;;;;;;5043781;28;20091;-88
2022/09/20 02:45:24;;;;;;;4.80;3.10;;;18.40;62.00;;;;;;5031397;28;20120;-90
2022/09/20 02:47:52;;;;;;;4.05;2.80;;;18.20;62.30;;;;;;5035573;28;20029;-85
2022/09/20 02:50:37;;;;;;;4.35;3.15;;;17.70;63.40;;;;;;5051020;28;20021;-87
2022/09/20 02:53:30;;;;;;;4.25;2.72;;;17.50;64.40;;;;;;5034510;28;20033;-87
2022/09/20 02:56:26;;;;;;;4.82;3.08;;;17.50;64.10;;;;;;5048983;28;20025;-87
2022/09/20 02:59:10;;;;;;;4.00;2.90;;;17.60;64.10;;;;;;5054940;28;20075;-87
2022/09/20 03:02:01;;;;;;;6.00;3.17;;;17.60;63.90;;;;;;5033770;28;20037;-93
2022/09/20 03:04:39;;;;;;;4.28;2.90;;;17.90;63.80;;;;;;5027203;28;20033;-84
2022/09/20 03:07:11;;;;;;;4.60;3.33;;;18.00;63.50;;;;;;5039434;28;20017;-92
2022/09/20 03:09:43;;;;;;;6.00;2.80;;;18.20;62.60;;;;;;5035325;28;20075;-90
2022/09/20 03:12:30;;;;;;;4.70;2.92;;;18.60;61.90;;;;;;5035978;28;20566;-95
2022/09/20 03:14:59;;;;;;;4.85;3.00;;;18.40;61.90;;;;;;5033504;28;20050;-85
2022/09/20 03:18:07;;;;;;;5.55;3.30;;;18.60;61.90;;;;;;5049485;28;20029;-89
2022/09/20 03:20:45;;;;;;;4.90;3.17;;;18.50;61.80;;;;;;5033175;28;20041;-83
2022/09/20 03:23:25;;;;;;;5.03;3.33;;;18.10;62.80;;;;;;5043939;28;20022;-91
2022/09/20 03:25:57;;;;;;;;;;;17.80;63.50;;;;;;5035834;28;20022;-91
2022/09/20 03:28:35;;;;;;;7.47;2.88;;;17.90;63.20;;;;;;5034349;28;19913;-88
2022/09/20 03:31:17;;;;;;;5.05;2.90;;;18.00;63.40;;;;;;5034518;28;20101;-81
2022/09/20 03:33:49;;;;;;;6.13;2.67;;;18.00;63.20;;;;;;5033264;28;20033;-91
2022/09/20 03:37:00;;;;;;;5.03;2.70;;;18.10;63.00;;;;;;5054059;28;20017;-83
2022/09/20 03:39:50;;;;;;;4.65;3.17;;;18.50;62.20;;;;;;5042903;28;20124;-92
2022/09/20 03:42:22;;;;;;;4.78;3.00;;;18.60;61.70;;;;;;5053068;28;20037;-87
2022/09/20 03:45:20;;;;;;;4.32;2.88;;;18.50;61.40;;;;;;5032928;28;20166;-82
2022/09/20 03:48:20;;;;;;;5.80;3.92;;;18.30;61.90;;;;;;5045242;28;20031;-85
2022/09/20 03:50:48;;;;;;;4.43;2.90;;;18.10;62.00;;;;;;5052100;28;20056;-91
2022/09/20 03:53:21;;;;;;;5.18;2.80;;;18.10;62.90;;;;;;5035249;28;20052;-93
2022/09/20 03:55:58;;;;;;;5.00;2.90;;;18.30;62.50;;;;;;5049995;28;20074;-87
2022/09/20 03:58:55;;;;;;;6.10;3.67;;;18.50;61.30;;;;;;5034114;28;20040;-93
2022/09/20 04:01:48;;;;;;;8.65;3.63;;;18.30;61.80;;;;;;5049090;28;20400;-90
2022/09/20 04:04:31;;;;;;;6.55;2.95;;;18.20;62.00;;;;;;5035910;28;20024;-86
2022/09/20 04:07:23;;;;;;;5.47;2.75;;;18.30;61.80;;;;;;5044694;28;20548;-85
2022/09/20 04:10:12;;;;;;;4.78;3.17;;;18.10;62.30;;;;;;5048849;28;20120;-88
2022/09/20 04:13:15;;;;;;;5.07;3.28;;;18.20;62.20;;;;;;5037572;28;20047;-87
2022/09/20 04:16:00;;;;;;;6.45;3.50;;;18.50;61.50;;;;;;5048420;28;20400;-85
2022/09/20 04:18:55;;;;;;;5.90;3.28;;;18.40;61.50;;;;;;5032809;28;20484;-85
2022/09/20 04:21:40;;;;;;;5.30;3.45;;;18.30;61.90;;;;;;5048870;28;20032;-81
2022/09/20 04:24:32;;;;;;;4.63;3.20;;;18.30;61.60;;;;;;5032751;28;20367;-88
2022/09/20 04:27:28;;;;;;;5.47;3.45;;;18.20;61.80;;;;;;5022282;28;20042;-90
2022/09/20 04:30:29;;;;;;;5.28;3.47;;;17.80;62.70;;;;;;5017777;28;20030;-81
2022/09/20 04:33:14;;;;;;;3.97;2.90;;;17.80;62.80;;;;;;5031381;28;20045;-80
2022/09/20 04:39:02;;;;;;;4.82;2.97;;;17.60;63.10;;;;;;5020584;28;20049;-84
2022/09/20 04:41:54;;;;;;;4.60;3.10;;;17.60;63.20;;;;;;5022171;28;20031;-83
2022/09/20 04:44:47;;;;;;;5.50;3.60;;;17.50;64.00;;;;;;5025112;28;20090;-94
2022/09/20 04:47:49;;;;;;;4.97;3.20;;;17.50;64.10;;;;;;5022493;28;20030;-91
2022/09/20 04:50:29;;;;;;;5.93;3.30;;;17.90;62.90;;;;;;5019054;28;20043;-90
2022/09/20 04:53:16;;;;;;;5.05;3.55;;;17.80;63.00;;;;;;5035702;28;20047;-92
2022/09/20 04:56:20;;;;;;;5.93;3.40;;;17.60;63.10;;;;;;5015607;28;20140;-90
2022/09/20 04:59:09;;;;;;;5.85;3.40;;;17.60;63.50;;;;;;5016104;28;20037;-82
2022/09/20 05:02:02;;;;;;;4.80;3.33;;;17.70;63.20;;;;;;5026946;28;20463;-90
2022/09/20 05:05:05;;;;;;;6.90;3.55;;;17.80;62.90;;;;;;5040561;28;20033;-87
2022/09/20 05:08:10;;;;;;;5.60;3.38;;;17.60;63.50;;;;;;5036950;28;20064;-84
2022/09/20 05:10:35;;;;;;;7.32;3.67;;;17.80;63.20;;;;;;4995135;28;20121;-80
2022/09/20 05:13:20;;;;;;;6.40;3.50;;;17.70;63.30;;;;;;5006354;28;21048;-85
2022/09/20 05:16:07;;;;;;;6.93;3.30;;;17.70;62.80;;;;;;4999039;28;20041;-85
2022/09/20 05:18:44;;;;;;;7.05;3.22;;;17.60;63.30;;;;;;4996755;28;20022;-86
2022/09/20 05:21:49;;;;;;;5.28;2.97;;;17.50;63.50;;;;;;4995481;28;20042;-90
2022/09/20 05:24:41;;;;;;;6.38;3.42;;;17.70;63.80;;;;;;4998333;28;20030;-87
2022/09/20 05:27:25;;;;;;;6.22;3.10;;;17.90;62.70;;;;;;4921513;29;20040;-83
2022/09/20 05:30:05;;;;;;;7.35;3.35;;;18.10;62.10;;;;;;4918215;29;20040;-91
2022/09/20 05:32:55;;;;;;;7.38;3.28;;;18.20;61.80;;;;;;4907718;29;20119;-84
2022/09/20 05:35:55;;;;;;;4.57;2.83;;;18.10;61.90;;;;;;4928643;29;20381;-84
2022/09/20 05:38:27;;;;;;;6.22;3.22;;;18.20;62.30;;;;;;4919323;29;20493;-84
2022/09/20 05:41:31;;;;;;;4.40;2.80;;;18.30;61.60;;;;;;4936397;29;20455;-84
2022/09/20 05:44:23;;;;;;;10.80;9.70;;;18.40;62.00;;;;;;4861572;29;20030;-81
2022/09/20 05:47:10;;;;;;;7.72;3.10;;;18.40;61.60;;;;;;4853967;29;20045;-84
2022/09/20 05:50:07;;;;;;;5.30;3.15;;;18.60;61.40;;;;;;4917295;29;20123;-91
2022/09/20 05:52:59;;;;;;;5.80;3.08;;;18.70;61.50;;;;;;4902013;29;20024;-89
2022/09/20 05:55:49;;;;;;;6.82;3.33;;;18.80;61.00;;;;;;4918297;29;20111;-82
2022/09/20 05:58:32;;;;;;;5.27;2.80;;;18.40;61.40;;;;;;4900702;29;20055;-86
2022/09/20 06:01:25;;;;;;;4.57;3.00;;;18.30;62.10;;;;;;4901896;29;20627;-85
2022/09/20 06:04:22;;;;;;;5.60;3.03;;;18.30;62.60;;;;;;4929702;29;20039;-92
2022/09/20 06:06:56;;;;;;;4.63;3.00;;;18.30;62.40;;;;;;4955899;28;20386;-91
2022/09/20 06:10:04;;;;;;;4.70;2.90;;;18.40;62.50;;;;;;4955527;29;20035;-80
2022/09/20 06:12:30;;;;;;;4.38;2.83;;;18.70;62.00;;;;;;4937914;29;20050;-88
2022/09/20 06:15:11;;;;;;;5.20;2.90;;;18.90;61.30;;;;;;5009149;28;20041;-82
2022/09/20 06:17:45;;;;;;;5.13;3.25;;;19.00;60.90;;;;;;5035642;28;20075;-95
2022/09/20 06:20:17;;;;;;;8.23;2.97;;;18.80;61.50;;;;;;5035358;28;20521;-85
2022/09/20 06:22:46;;;;;;;10.05;3.33;;;18.70;62.00;;;;;;5040784;28;20368;-89
2022/09/20 06:25:23;;;;;;;6.68;3.00;;;18.90;61.50;;;;;;5050841;28;20041;-80
2022/09/20 06:28:50;;;;;;;7.55;2.97;;;18.90;61.20;;;;;;5034698;28;20021;-88
2022/09/20 06:31:16;;;;;;;4.45;2.72;;;19.10;60.70;;;;;;4974604;28;20081;-87
2022/09/20 06:34:01;;;;;;;5.32;2.90;;;19.00;61.20;;;;;;4958363;28;20533;-94
2022/09/20 06:42:35;;;;;;;4.88;2.67;;;19.50;60.50;;;;;;4994170;28;20495;-90
2022/09/20 06:45:00;;;;;;;4.30;2.90;;;19.40;60.40;;;;;;4980540;28;20124;-90
2022/09/20 06:47:26;;;;;;;6.72;2.85;;;19.50;60.30;;;;;;4994595;28;20583;-88
2022/09/20 06:49:55;;;;;;;5.68;2.78;;;19.90;59.70;;;;;;4977897;28;20065;-91
2022/09/20 06:52:21;;;;;;;4.93;2.80;;;20.00;59.50;;;;;;4977702;28;20033;-93
2022/09/20 06:54:50;;;;;;;5.75;3.20;;;20.20;58.90;;;;;;4977414;28;20118;-91
2022/09/20 06:57:22;;;;;;;8.95;2.70;;;20.20;58.70;;;;;;4977805;28;20030;-85
2022/09/20 06:59:48;;;;;;;4.30;3.00;;;20.20;59.30;;;;;;4991967;28;20076;-88
2022/09/20 07:02:13;;;;;;;6.63;3.10;;;20.20;58.70;;;;;;5017854;28;20033;-84
2022/09/20 07:04:39;;;;;;;7.35;2.92;;;20.10;58.80;;;;;;5050321;28;20029;-84
2022/09/20 07:07:07;;;;;;;4.97;3.15;;;20.20;58.60;;;;;;5053306;28;20114;-83
2022/09/20 07:09:33;;;;;;;5.13;2.97;;;20.20;58.70;;;;;;5052960;28;20119;-82
2022/09/20 07:11:58;;;;;;;5.78;2.97;;;20.00;58.80;;;;;;5053268;28;20028;-92
2022/09/20 07:14:25;;;;;;;7.80;3.40;;;19.80;59.10;;;;;;5052022;28;20438;-80
2022/09/20 07:16:52;;;;;;;5.43;3.63;;;19.60;60.10;;;;;;5052150;28;20025;-81
2022/09/20 07:19:18;;;;;;;5.88;3.20;;;19.70;60.00;;;;;;5053032;28;20103;-81
2022/09/20 07:21:44;;;;;;;5.22;2.95;;;20.00;59.60;;;;;;5053122;28;20788;-84
2022/09/20 07:24:09;;;;;;;5.30;3.15;;;20.00;59.00;;;;;;5051989;28;20055;-85
2022/09/20 07:26:37;;;;;;;4.80;3.40;;;20.00;59.30;;;;;;5053103;28;20052;-89
2022/09/20 07:29:04;;;;;;;4.80;3.00;;;19.80;58.90;;;;;;5052691;28;20013;-83
2022/09/20 07:31:30;;;;;;;6.07;3.53;;;19.90;59.40;;;;;;5051772;28;20021;-86
2022/09/20 07:33:55;;;;;;;4.60;3.33;;;19.60;59.80;;;;;;5034520;28;20042;-82
2022/09/20 07:36:21;;;;;;;4.38;3.13;;;19.60;59.90;;;;;;5034292;28;20033;-85
2022/09/20 07:38:51;;;;;;;4.18;3.22;;;19.50;60.70;;;;;;5038016;28;20033;-85
2022/09/20 07:41:18;;;;;;;6.03;3.42;;;19.60;60.30;;;;;;5035138;28;20034;-82
2022/09/20 07:43:45;;;;;;;5.97;3.20;;;19.80;59.70;;;;;;5035145;28;20033;-79
2022/09/20 07:46:14;;;;;;;9.48;3.25;;;20.00;58.80;;;;;;5040279;28;20029;-84
2022/09/20 07:48:40;;;;;;;5.50;3.03;;;19.90;59.80;;;;;;5037612;28;20084;-86
2022/09/20 07:51:11;;;;;;;4.72;3.40;;;20.10;60.00;;;;;;5032726;28;20025;-90
2022/09/20 07:53:38;;;;;;;5.13;3.10;;;20.30;59.50;;;;;;5032914;28;20037;-88
2022/09/20 07:56:06;;;;;;;6.10;3.47;;;20.60;59.40;;;;;;5032406;28;20022;-84
2022/09/20 07:58:34;;;;;;;6.18;3.38;;;20.90;57.90;;;;;;5032563;28;20051;-80
2022/09/20 08:01:07;;;;;;;4.32;3.30;;;20.80;58.50;;;;;;5033989;28;20476;-79
2022/09/20 08:03:33;;;;;;;5.70;3.42;;;20.80;58.10;;;;;;5032502;28;20030;-81
2022/09/20 08:06:05;;;;;;;5.22;3.88;;;20.90;57.90;;;;;;5049186;28;20058;-84
2022/09/20 08:08:35;;;;;;;7.38;3.50;;;20.70;58.50;;;;;;5032807;28;20022;-87
2022/09/20 08:11:16;;;;;;;4.82;3.47;;;21.00;58.50;;;;;;5032911;28;20030;-87
2022/09/20 08:13:48;;;;;;;5.78;3.50;;;20.90;57.40;;;;;;5041253;28;20057;-84
2022/09/20 08:16:14;;;;;;;5.28;3.53;;;20.30;58.60;;;;;;5035956;28;20033;-87
2022/09/20 08:18:54;;;;;;;5.07;3.53;;;20.20;58.60;;;;;;5035838;28;20025;-87
2022/09/20 08:21:20;;;;;;;5.82;3.78;;;20.10;58.90;;;;;;5052991;28;20017;-85
2022/09/20 08:23:47;;;;;;;4.78;3.55;;;20.20;59.20;;;;;;5052420;28;20036;-88
2022/09/20 08:26:17;;;;;;;6.35;3.20;;;20.60;59.10;;;;;;5052178;28;20413;-89
2022/09/20 08:28:44;;;;;;;6.43;4.38;;;20.90;58.60;;;;;;5035770;28;20021;-86
2022/09/20 08:31:18;;;;;;;5.97;4.03;;;20.70;57.50;;;;;;5053366;28;20040;-86
2022/09/20 08:33:44;;;;;;;6.10;3.90;;;20.40;58.20;;;;;;5053100;28;20033;-87
2022/09/20 08:36:16;;;;;;;5.53;3.33;;;20.50;58.60;;;;;;5035558;28;20021;-82
2022/09/20 08:38:42;;;;;;;5.88;3.17;;;20.60;58.80;;;;;;5053265;28;20025;-80
2022/09/20 08:41:13;;;;;;;9.73;3.33;;;20.40;58.50;;;;;;5035664;28;20028;-86
2022/09/20 08:44:02;;;;;;;4.63;3.30;;;20.50;58.90;;;;;;5035917;28;20070;-87
2022/09/20 08:46:33;;;;;;;4.90;2.92;;;20.90;57.10;;;;;;5053619;28;20013;-83
2022/09/20 08:48:58;;;;;;;;;;;20.80;57.90;;;;;;5036047;28;20021;-80
2022/09/20 08:51:29;;;;;;;5.32;3.10;;;21.00;57.50;;;;;;5035438;28;19905;-86
2022/09/20 08:53:57;;;;;;;6.30;3.15;;;20.90;57.70;;;;;;5052953;28;20040;-88
2022/09/20 08:56:30;;;;;;;4.50;2.90;;;21.10;57.70;;;;;;5035235;28;20040;-83
2022/09/20 08:58:58;;;;;;;4.50;2.50;;;21.20;56.90;;;;;;5035432;28;20033;-84
2022/09/20 09:01:27;;;;;;;4.20;2.80;;;21.20;57.40;;;;;;5035240;28;20051;-84
2022/09/20 09:04:15;;;;;;;6.85;3.15;;;21.60;57.10;;;;;;5052983;28;20108;-81
2022/09/20 09:06:42;;;;;;;3.70;2.90;;;21.80;55.50;;;;;;5052923;28;20071;-88
2022/09/20 09:09:17;;;;;;;4.13;2.70;;;21.80;55.90;;;;;;5035098;28;20029;-82
2022/09/20 09:11:43;;;;;;;4.65;2.70;;;21.80;55.20;;;;;;5035435;28;20048;-77
2022/09/20 09:17:10;;;;;;;3.47;2.50;;;21.90;54.90;;;;;;5052726;28;20079;-85
2022/09/20 09:19:47;;;;;;;3.55;2.60;;;22.10;55.90;;;;;;5052999;28;20025;-85
2022/09/20 09:22:39;;;;;;;3.97;3.05;;;22.60;55.70;;;;;;5035248;28;20025;-82
2022/09/20 09:25:06;;;;;;;3.70;2.40;;;22.60;54.10;;;;;;5052958;28;20032;-83
2022/09/20 09:27:32;;;;;;;5.68;2.88;;;22.50;54.90;;;;;;5035169;28;20052;-85
2022/09/20 09:29:58;;;;;;;3.60;2.38;;;22.80;55.20;;;;;;5051739;28;20040;-85
2022/09/20 09:32:28;;;;;;;6.80;3.03;;;23.20;54.50;;;;;;5054062;28;20025;-90
2022/09/20 09:34:55;;;;;;;5.55;3.03;;;23.10;53.60;;;;;;5038699;28;20052;-83
2022/09/20 09:37:27;;;;;;;5.13;2.67;;;23.00;53.60;;;;;;5038759;28;20056;-85
2022/09/20 09:40:08;;;;;;;5.57;2.90;;;23.00;53.60;;;;;;5038886;28;20037;-90
2022/09/20 09:42:34;;;;;;;5.03;2.95;;;22.90;54.20;;;;;;5038748;28;20036;-92
2022/09/20 09:45:29;;;;;;;8.07;2.92;;;23.00;54.30;;;;;;5055302;28;20036;-88
2022/09/20 09:47:55;;;;;;;3.95;2.80;;;22.80;54.70;;;;;;5038427;28;20055;-89
2022/09/20 09:50:24;;;;;;;4.85;3.10;;;22.50;54.90;;;;;;5038609;28;20052;-87
2022/09/20 09:53:19;;;;;;;5.20;3.00;;;22.50;55.00;;;;;;5038494;28;20075;-86
2022/09/20 09:55:51;;;;;;;4.80;2.60;;;22.40;55.10;;;;;;5056393;28;20029;-85
2022/09/20 09:58:37;;;;;;;5.32;2.67;;;22.90;55.00;;;;;;5038610;28;20437;-83
2022/09/20 10:01:10;;;;;;;3.60;2.55;;;23.20;54.40;;;;;;5038442;28;20025;-84
2022/09/20 10:04:08;;;;;;;5.07;2.20;;;23.30;54.20;;;;;;5038518;28;20164;-88
2022/09/20 10:06:49;;;;;;;4.80;2.00;;;23.30;53.00;;;;;;5038070;28;20474;-84
2022/09/20 10:09:28;;;;;;;4.43;2.78;;;23.40;53.00;;;;;;5033715;28;20025;-86
2022/09/20 10:12:31;;;;;;;4.45;2.47;;;23.00;53.10;;;;;;5037985;28;20032;-83
2022/09/20 10:15:05;;;;;;;3.55;2.33;;;22.80;53.60;;;;;;5038072;28;20424;-82
2022/09/20 10:17:46;;;;;;;5.50;2.40;;;22.90;54.30;;;;;;5055693;28;20092;-89
2022/09/20 10:20:36;;;;;;;;;;;23.30;54.10;;;;;;5038450;28;20021;-80
2022/09/20 10:23:40;;;;;;;3.10;2.10;;;23.40;53.50;;;;;;5038399;28;19908;-82
2022/09/20 10:26:31;;;;;;;3.13;2.20;;;23.40;53.40;;;;;;5037722;28;20025;-84
2022/09/20 10:29:11;;;;;;;5.03;2.15;;;23.40;53.40;;;;;;5037955;28;20487;-82
2022/09/20 10:31:56;;;;;;;4.50;2.30;;;23.30;53.10;;;;;;5037325;28;20029;-83
2022/09/20 10:34:39;;;;;;;3.72;2.45;;;23.40;53.20;;;;;;5055261;28;20514;-85
2022/09/20 10:37:14;;;;;;;4.32;2.40;;;23.10;52.70;;;;;;5037708;28;20111;-86
2022/09/20 10:39:40;;;;;;;3.40;2.30;;;22.80;53.20;;;;;;5055330;28;20384;-84
2022/09/20 10:45:21;;;;;;;2.70;1.90;;;22.70;53.90;;;;;;5055665;28;20502;-85
2022/09/20 10:48:02;;;;;;;3.55;2.20;;;23.10;52.70;;;;;;5037458;28;20033;-83
2022/09/20 10:50:57;;;;;;;3.05;2.00;;;23.40;51.50;;;;;;5037336;28;20036;-86
2022/09/20 10:53:41;;;;;;;3.67;2.00;;;23.70;52.10;;;;;;5055080;28;20033;-84
2022/09/20 10:56:25;;;;;;;3.38;2.10;;;23.90;51.20;;;;;;5037189;28;20025;-83
2022/09/20 10:59:23;;;;;;;3.05;2.05;;;23.90;51.50;;;;;;5037367;28;20021;-85
2022/09/20 11:02:06;;;;;;;4.80;2.10;;;24.00;51.10;;;;;;5037024;28;20025;-84
2022/09/20 11:04:54;;;;;;;3.67;2.10;;;23.80;50.50;;;;;;5036490;28;20025;-80
2022/09/20 11:07:53;;;;;;;3.40;1.92;;;23.10;51.20;;;;;;5054871;28;20027;-85
2022/09/20 11:10:47;;;;;;;3.08;2.13;;;22.70;51.70;;;;;;5036791;28;20024;-88
2022/09/20 11:13:19;;;;;;;2.97;1.95;;;22.60;52.20;;;;;;5050767;28;20040;-86
2022/09/20 11:15:52;;;;;;;3.35;2.00;;;22.60;52.10;;;;;;5054476;28;20045;-83
2022/09/20 11:18:38;;;;;;;3.17;1.90;;;22.60;53.00;;;;;;5036715;28;20103;-88
2022/09/20 11:21:27;;;;;;;3.25;1.65;;;23.00;51.60;;;;;;5032323;28;20029;-79
2022/09/20 11:24:00;;;;;;;3.13;1.90;;;23.10;50.70;;;;;;5036797;28;20029;-84
2022/09/20 11:26:50;;;;;;;3.15;1.85;;;23.20;51.40;;;;;;5036527;28;20108;-82
2022/09/20 11:29:18;;;;;;;2.97;1.90;;;23.10;52.00;;;;;;5036565;28;20025;-84
2022/09/20 11:31:47;;;;;;;3.10;2.08;;;22.90;52.10;;;;;;5036185;28;20044;-83
2022/09/20 11:34:32;;;;;;;3.95;2.05;;;22.90;52.90;;;;;;5036697;28;20132;-83
2022/09/20 11:37:02;;;;;;;5.47;1.83;;;23.20;52.70;;;;;;5036320;28;20021;-87
2022/09/20 11:39:41;;;;;;;5.22;1.98;;;23.10;52.30;;;;;;5053826;28;20043;-87
2022/09/20 11:42:15;;;;;;;3.13;1.70;;;23.00;52.20;;;;;;5053883;28;20028;-91
2022/09/20 11:44:41;;;;;;;3.10;2.10;;;23.10;52.70;;;;;;5037135;28;20110;-85
2022/09/20 11:47:06;;;;;;;3.58;2.08;;;22.80;53.00;;;;;;5053845;28;20021;-89
2022/09/20 11:49:41;;;;;;;4.00;1.85;;;23.00;53.00;;;;;;5053700;28;20438;-81
2022/09/20 11:52:17;;;;;;;3.35;1.98;;;23.50;53.20;;;;;;5035691;28;20021;-89
2022/09/20 11:55:15;;;;;;;3.38;2.03;;;23.50;52.50;;;;;;5034639;28;20395;-90
2022/09/20 11:57:40;;;;;;;3.70;2.17;;;23.70;51.70;;;;;;5036265;28;20021;-85
2022/09/20 12:00:08;;;;;;;2.92;1.92;;;23.70;51.60;;;;;;5052739;28;20082;-85
2022/09/20 12:02:46;;;;;;;3.38;2.10;;;23.90;52.50;;;;;;5035135;28;20123;-90
2022/09/20 12:05:36;;;;;;;3.25;2.13;;;24.00;52.00;;;;;;5033969;28;20028;-84
2022/09/20 12:08:07;;;;;;;2.80;1.73;;;24.30;51.90;;;;;;5052232;28;20094;-81
2022/09/20 12:10:38;;;;;;;3.63;2.10;;;24.30;50.60;;;;;;5034298;28;20028;-86
2022/09/20 12:13:35;;;;;;;3.10;1.83;;;24.20;50.70;;;;;;5034415;28;20345;-84
2022/09/20 12:16:06;;;;;;;4.18;1.92;;;23.90;51.90;;;;;;5052765;28;20052;-80
2022/09/20 12:18:45;;;;;;;2.92;1.80;;;24.10;51.30;;;;;;5035775;28;20048;-85
2022/09/20 12:21:21;;;;;;;4.10;1.80;;;24.10;51.10;;;;;;5035774;28;20025;-87
2022/09/20 12:23:56;;;;;;;3.40;1.90;;;24.00;50.00;;;;;;5036435;28;20129;-83
2022/09/20 12:26:22;;;;;;;3.42;2.00;;;23.80;50.20;;;;;;5035719;28;20468;-87
2022/09/20 12:28:59;;;;;;;4.18;1.98;;;23.40;50.70;;;;;;5053068;28;20088;-83
2022/09/20 12:31:27;;;;;;;3.30;2.03;;;23.40;51.50;;;;;;5053190;28;20077;-83
2022/09/20 12:34:03;;;;;;;5.18;1.85;;;23.00;51.40;;;;;;5035866;28;20506;-83
2022/09/20 12:36:33;;;;;;;3.40;2.10;;;22.90;51.30;;;;;;5053728;28;20021;-90
2022/09/20 12:39:10;;;;;;;4.03;2.10;;;22.50;52.00;;;;;;5035596;28;20032;-85
2022/09/20 12:41:54;;;;;;;3.22;2.05;;;22.40;52.50;;;;;;5053856;28;20419;-86
2022/09/20 12:44:37;;;;;;;3.47;2.00;;;22.70;51.70;;;;;;5053446;28;20029;-85
2022/09/20 12:47:16;;;;;;;3.05;1.90;;;22.90;52.30;;;;;;5053457;28;20032;-86
2022/09/20 12:52:54;;;;;;;5.32;2.10;;;23.20;52.50;;;;;;5053690;28;20055;-82
2022/09/20 12:55:45;;;;;;;5.70;2.55;;;22.80;51.60;;;;;;5053284;28;20025;-86
2022/09/20 12:58:13;;;;;;;3.30;2.15;;;21.90;53.10;;;;;;5036163;28;20024;-82
2022/09/20 13:00:56;;;;;;;5.43;2.28;;;21.90;53.60;;;;;;5036275;28;20029;-91
2022/09/20 13:03:30;;;;;;;3.83;2.10;;;22.10;54.60;;;;;;5035300;28;20036;-80
2022/09/20 13:06:10;;;;;;;3.10;2.00;;;22.70;54.10;;;;;;5054335;28;20106;-95
2022/09/20 13:08:47;;;;;;;4.15;2.10;;;22.90;53.00;;;;;;5057928;28;20021;-89
2022/09/20 13:11:21;;;;;;;3.22;2.08;;;23.30;52.10;;;;;;5057450;28;20070;-86
2022/09/20 13:14:05;;;;;;;4.22;2.30;;;23.10;50.50;;;;;;5039652;28;20475;-88
2022/09/20 13:16:46;;;;;;;5.45;2.45;;;23.00;51.10;;;;;;5039360;28;20565;-82
2022/09/20 13:19:15;;;;;;;;;;;23.40;51.10;;;;;;5039393;28;20041;-93
2022/09/20 13:22:01;;;;;;;3.75;2.22;;;23.50;50.90;;;;;;5039222;28;19912;-86
2022/09/20 13:24:31;;;;;;;5.95;3.55;;;23.30;51.00;;;;;;5039526;28;20040;-92
2022/09/20 13:27:21;;;;;;;4.35;2.75;;;23.20;52.10;;;;;;5039068;28;20036;-88
2022/09/20 13:29:46;;;;;;;3.67;2.30;;;22.70;52.00;;;;;;5038765;28;20036;-85
2022/09/20 13:32:31;;;;;;;3.63;2.00;;;22.50;52.60;;;;;;5038849;28;20025;-82
2022/09/20 13:35:06;;;;;;;3.45;2.10;;;22.40;52.50;;;;;;5056679;28;20037;-82
2022/09/20 13:37:33;;;;;;;3.25;2.00;;;22.30;53.10;;;;;;5056716;28;20024;-86
2022/09/20 13:39:59;;;;;;;2.92;1.83;;;22.50;53.60;;;;;;5038970;28;20033;-88
2022/09/20 13:42:28;;;;;;;3.38;1.90;;;22.70;52.90;;;;;;5038874;28;20033;-84
2022/09/20 13:44:56;;;;;;;2.97;1.80;;;22.80;51.60;;;;;;5038144;28;20520;-89
2022/09/20 13:47:30;;;;;;;2.80;1.77;;;22.30;52.90;;;;;;5038702;28;20025;-86
2022/09/20 13:50:19;;;;;;;3.53;2.03;;;22.20;53.20;;;;;;5038602;28;20025;-93
2022/09/20 13:52:51;;;;;;;5.07;2.70;;;22.30;53.30;;;;;;5055715;28;20490;-89
2022/09/20 13:55:26;;;;;;;3.67;1.92;;;22.10;53.40;;;;;;5038143;28;20537;-87
2022/09/20 13:57:54;;;;;;;4.03;2.10;;;22.20;54.10;;;;;;5056326;28;20025;-86
2022/09/20 14:00:20;;;;;;;3.92;2.40;;;22.40;54.30;;;;;;5038613;28;20387;-86
2022/09/20 14:02:48;;;;;;;3.30;2.20;;;22.70;53.10;;;;;;5054902;28;20029;-87